createdAt,value
2022-10-27T00:01:23.557Z,21.10
2022-10-27T00:03:52.319Z,21.10
2022-10-27T00:06:21.610Z,21.00
2022-10-27T00:08:54.063Z,21.00
2022-10-27T00:11:22.861Z,21.00
2022-10-27T00:13:50.897Z,20.90
2022-10-27T00:16:20.013Z,20.90
2022-10-27T00:18:48.616Z,20.90
2022-10-27T00:21:20.464Z,20.90
2022-10-27T00:23:51.120Z,20.90
2022-10-27T00:26:22.083Z,20.80
2022-10-27T00:28:50.671Z,20.80
2022-10-27T00:31:23.630Z,20.90
2022-10-27T00:33:52.433Z,20.80
2022-10-27T00:36:23.377Z,20.90
2022-10-27T00:38:55.702Z,20.90
2022-10-27T00:41:37.117Z,20.80
2022-10-27T00:44:37.262Z,20.80
2022-10-27T00:47:17.336Z,20.70
2022-10-27T00:50:06.699Z,20.60
2022-10-27T00:52:48.397Z,20.60
2022-10-27T00:55:21.859Z,20.60
2022-10-27T00:57:56.665Z,20.50
2022-10-27T01:00:25.715Z,20.50
2022-10-27T01:02:54.247Z,20.50
2022-10-27T01:05:28.576Z,20.50
2022-10-27T01:08:00.776Z,20.50
2022-10-27T01:10:29.616Z,20.40
2022-10-27T01:12:59.095Z,20.40
2022-10-27T01:15:46.119Z,20.40
2022-10-27T01:18:20.829Z,20.40
2022-10-27T01:21:04.220Z,20.30
2022-10-27T01:23:32.912Z,20.30
2022-10-27T01:26:36.395Z,20.30
2022-10-27T01:29:43.126Z,20.30
2022-10-27T01:32:29.505Z,20.30
2022-10-27T01:35:09.380Z,20.20
2022-10-27T01:38:01.217Z,20.20
2022-10-27T01:40:43.733Z,20.20
2022-10-27T01:43:22.314Z,20.20
2022-10-27T01:45:52.134Z,20.20
2022-10-27T01:48:21.671Z,20.20
2022-10-27T01:51:01.302Z,20.20
2022-10-27T01:53:46.012Z,20.20
2022-10-27T01:56:55.250Z,20.20
2022-10-27T01:59:55.210Z,20.20
2022-10-27T02:02:44.586Z,20.10
2022-10-27T02:05:36.638Z,20.10
2022-10-27T02:08:19.921Z,20.10
2022-10-27T02:11:05.064Z,20.10
2022-10-27T02:13:36.406Z,20.10
2022-10-27T02:16:09.327Z,20.10
2022-10-27T02:18:43.512Z,20.10
2022-10-27T02:21:16.138Z,20.10
2022-10-27T02:23:44.678Z,20.10
2022-10-27T02:26:23.264Z,20.10
2022-10-27T02:28:58.590Z,20.10
2022-10-27T02:31:32.235Z,20.00
2022-10-27T02:34:01.147Z,20.00
2022-10-27T02:36:29.716Z,20.00
2022-10-27T02:38:58.255Z,20.00
2022-10-27T02:41:26.557Z,20.00
2022-10-27T02:43:56.273Z,20.00
2022-10-27T02:46:25.207Z,20.00
2022-10-27T02:48:53.034Z,20.00
2022-10-27T02:51:21.664Z,19.90
2022-10-27T02:53:49.813Z,19.90
2022-10-27T02:56:18.078Z,19.90
2022-10-27T02:58:46.287Z,19.90
2022-10-27T03:01:14.796Z,19.90
2022-10-27T03:03:43.679Z,19.90
2022-10-27T03:06:12.649Z,19.90
2022-10-27T03:08:40.715Z,19.90
2022-10-27T03:11:09.413Z,19.90
2022-10-27T03:13:37.616Z,19.90
2022-10-27T03:16:06.012Z,19.80
2022-10-27T03:18:34.277Z,19.90
2022-10-27T03:21:02.822Z,19.80
2022-10-27T03:23:30.758Z,19.80
2022-10-27T03:26:00.864Z,19.80
2022-10-27T03:28:35.657Z,19.80
2022-10-27T03:31:05.292Z,19.80
2022-10-27T03:33:34.097Z,19.80
2022-10-27T03:36:02.324Z,19.80
2022-10-27T03:38:30.468Z,19.70
2022-10-27T03:40:59.210Z,19.70
2022-10-27T03:43:29.380Z,19.70
2022-10-27T03:46:00.865Z,19.70
2022-10-27T03:48:29.644Z,19.70
2022-10-27T03:50:57.682Z,19.70
2022-10-27T03:53:26.323Z,19.60
2022-10-27T03:55:54.949Z,19.60
2022-10-27T03:58:23.524Z,19.60
2022-10-27T04:00:52.204Z,19.60
2022-10-27T04:03:21.328Z,19.60
2022-10-27T04:05:52.561Z,19.60
2022-10-27T04:08:21.243Z,19.60
2022-10-27T04:10:49.620Z,19.60
2022-10-27T04:13:18.492Z,19.60
2022-10-27T04:15:46.987Z,19.60
2022-10-27T04:18:15.127Z,19.60
2022-10-27T04:20:43.137Z,19.60
2022-10-27T04:23:11.332Z,19.60
2022-10-27T04:25:39.548Z,19.50
2022-10-27T04:28:09.689Z,19.50
2022-10-27T04:30:38.444Z,19.50
2022-10-27T04:33:06.665Z,19.50
2022-10-27T04:38:11.188Z,19.50
2022-10-27T04:40:39.978Z,19.40
2022-10-27T04:43:10.285Z,19.40
2022-10-27T04:45:39.521Z,19.40
2022-10-27T04:48:07.728Z,19.40
2022-10-27T04:50:35.956Z,19.40
2022-10-27T04:53:04.901Z,19.40
2022-10-27T04:55:34.370Z,19.40
2022-10-27T04:58:05.500Z,19.40
2022-10-27T05:00:37.591Z,19.40
2022-10-27T05:03:05.610Z,19.40
2022-10-27T05:05:33.729Z,19.40
2022-10-27T05:08:03.809Z,19.40
2022-10-27T05:10:34.096Z,19.40
2022-10-27T05:13:02.172Z,19.30
2022-10-27T05:15:30.495Z,19.40
2022-10-27T05:17:58.932Z,19.40
2022-10-27T05:20:27.487Z,19.40
2022-10-27T05:22:55.780Z,19.30
2022-10-27T05:25:23.869Z,19.30
2022-10-27T05:27:52.475Z,19.30
2022-10-27T05:30:20.694Z,19.30
2022-10-27T05:32:50.672Z,19.30
2022-10-27T05:35:18.701Z,19.30
2022-10-27T05:37:49.935Z,19.40
2022-10-27T05:40:18.616Z,19.40
2022-10-27T05:42:53.109Z,19.40
2022-10-27T05:45:24.309Z,19.40
2022-10-27T05:48:07.637Z,19.40
2022-10-27T05:50:36.549Z,19.50
2022-10-27T05:53:04.795Z,19.50
2022-10-27T05:55:34.519Z,19.50
2022-10-27T05:58:06.598Z,19.50
2022-10-27T06:00:37.587Z,19.50
2022-10-27T06:03:08.261Z,19.60
2022-10-27T06:05:37.827Z,19.60
2022-10-27T06:08:08.491Z,19.70
2022-10-27T06:10:36.682Z,19.70
2022-10-27T06:13:06.853Z,19.70
2022-10-27T06:15:35.537Z,19.80
2022-10-27T06:18:04.002Z,19.80
2022-10-27T06:20:32.278Z,19.90
2022-10-27T06:23:00.609Z,19.90
2022-10-27T06:25:31.794Z,20.00
2022-10-27T06:27:59.847Z,20.20
2022-10-27T06:30:27.747Z,20.30
2022-10-27T06:32:56.037Z,20.50
2022-10-27T06:35:24.786Z,20.70
2022-10-27T06:37:52.785Z,20.90
2022-10-27T06:40:21.734Z,21.10
2022-10-27T06:43:09.366Z,21.40
2022-10-27T06:45:41.030Z,21.60
2022-10-27T06:48:11.271Z,21.90
2022-10-27T06:50:39.219Z,22.20
2022-10-27T06:53:07.197Z,22.40
2022-10-27T06:55:35.304Z,22.60
2022-10-27T06:58:03.311Z,22.90
2022-10-27T07:00:31.668Z,23.10
2022-10-27T07:02:59.989Z,23.30
2022-10-27T07:05:28.121Z,23.60
2022-10-27T07:07:56.570Z,23.80
2022-10-27T07:10:24.871Z,24.00
2022-10-27T07:12:54.306Z,24.10
2022-10-27T07:15:23.661Z,24.30
2022-10-27T07:18:03.243Z,24.40
2022-10-27T07:20:33.976Z,24.40
2022-10-27T07:23:02.468Z,24.60
2022-10-27T07:25:31.654Z,24.70
2022-10-27T07:28:03.390Z,24.90
2022-10-27T07:30:38.891Z,25.10
2022-10-27T07:33:07.136Z,25.40
2022-10-27T07:35:35.240Z,25.50
2022-10-27T07:38:03.440Z,25.70
2022-10-27T07:40:33.134Z,26.00
2022-10-27T07:43:06.531Z,26.20
2022-10-27T07:45:39.399Z,26.40
2022-10-27T07:48:12.592Z,26.60
2022-10-27T07:50:41.610Z,26.70
2022-10-27T07:53:10.005Z,26.90
2022-10-27T07:55:38.659Z,27.10
2022-10-27T07:58:12.496Z,27.40
2022-10-27T08:00:43.588Z,27.60
2022-10-27T08:03:17.498Z,27.70
2022-10-27T08:05:46.561Z,27.80
2022-10-27T08:08:16.062Z,28.10
2022-10-27T08:10:45.755Z,28.30
2022-10-27T08:13:17.067Z,28.50
2022-10-27T08:15:45.223Z,28.50
2022-10-27T08:18:13.766Z,28.50
2022-10-27T08:20:45.428Z,28.70
2022-10-27T08:23:16.505Z,28.80
2022-10-27T08:25:44.941Z,28.90
2022-10-27T08:28:14.245Z,28.80
2022-10-27T08:30:50.627Z,29.10
2022-10-27T08:33:23.906Z,29.30
2022-10-27T08:35:52.265Z,29.40
2022-10-27T08:38:20.375Z,29.60
2022-10-27T08:40:54.449Z,30.00
2022-10-27T08:43:37.539Z,30.50
2022-10-27T08:46:30.755Z,30.60
2022-10-27T08:49:05.979Z,30.80
2022-10-27T08:51:36.094Z,31.00
2022-10-27T08:54:06.429Z,31.10
2022-10-27T08:56:40.686Z,31.20
2022-10-27T08:59:19.398Z,31.70
2022-10-27T09:02:18.794Z,31.80
2022-10-27T09:05:13.738Z,32.10
2022-10-27T09:08:19.359Z,31.70
2022-10-27T09:11:11.540Z,32.00
2022-10-27T09:13:51.877Z,31.60
2022-10-27T09:16:34.917Z,31.80
2022-10-27T09:19:06.184Z,32.20
2022-10-27T09:21:36.967Z,32.50
2022-10-27T09:24:14.104Z,32.70
2022-10-27T09:26:44.202Z,32.90
2022-10-27T09:29:23.718Z,33.10
2022-10-27T09:32:17.788Z,33.20
2022-10-27T09:35:02.166Z,33.20
2022-10-27T09:37:32.911Z,33.90
2022-10-27T09:40:01.358Z,34.20
2022-10-27T09:42:31.106Z,34.40
2022-10-27T09:45:01.575Z,35.00
2022-10-27T09:47:35.874Z,35.30
2022-10-27T09:50:08.149Z,35.20
2022-10-27T09:52:44.241Z,36.00
2022-10-27T09:55:12.881Z,36.10
2022-10-27T09:57:43.507Z,36.70
2022-10-27T10:00:17.590Z,37.10
2022-10-27T10:03:07.721Z,37.20
2022-10-27T10:05:38.228Z,37.40
2022-10-27T10:08:25.861Z,37.70
2022-10-27T10:10:55.375Z,37.60
2022-10-27T10:13:24.320Z,37.80
2022-10-27T10:16:13.848Z,37.80
2022-10-27T10:19:00.795Z,38.20
2022-10-27T10:21:48.809Z,38.40
2022-10-27T10:24:24.172Z,38.50
2022-10-27T10:26:56.379Z,38.30
2022-10-27T10:29:46.903Z,37.70
2022-10-27T10:32:22.272Z,37.80
2022-10-27T10:34:53.635Z,38.10
2022-10-27T10:37:41.606Z,38.20
2022-10-27T10:40:30.607Z,38.30
2022-10-27T10:43:13.522Z,38.40
2022-10-27T10:45:50.618Z,38.50
2022-10-27T10:48:33.391Z,38.80
2022-10-27T10:51:02.106Z,39.10
2022-10-27T10:53:40.781Z,39.10
2022-10-27T10:56:22.331Z,39.00
2022-10-27T10:59:02.951Z,38.90
2022-10-27T11:01:44.017Z,39.40
2022-10-27T11:04:24.155Z,40.30
2022-10-27T11:07:24.321Z,40.60
2022-10-27T11:10:15.828Z,41.00
2022-10-27T11:12:48.248Z,41.80
2022-10-27T11:15:23.392Z,41.40
2022-10-27T11:17:54.540Z,40.50
2022-10-27T11:20:27.780Z,40.70
2022-10-27T11:22:58.098Z,40.70
2022-10-27T11:25:33.256Z,40.70
2022-10-27T11:28:17.712Z,41.10
2022-10-27T11:31:23.787Z,41.20
2022-10-27T11:34:23.645Z,42.40
2022-10-27T11:36:51.739Z,43.00
2022-10-27T11:39:26.367Z,43.20
2022-10-27T11:42:13.418Z,43.30
2022-10-27T11:44:58.250Z,43.30
2022-10-27T11:47:33.242Z,43.50
2022-10-27T11:50:12.870Z,42.30
2022-10-27T11:52:45.875Z,42.60
2022-10-27T11:55:20.114Z,42.10
2022-10-27T11:57:59.325Z,42.20
2022-10-27T12:00:34.157Z,42.00
2022-10-27T12:03:11.131Z,42.20
2022-10-27T12:05:59.778Z,43.10
2022-10-27T12:08:36.767Z,43.50
2022-10-27T12:11:30.392Z,42.90
2022-10-27T12:14:32.905Z,43.90
2022-10-27T12:17:22.772Z,43.80
2022-10-27T12:19:54.792Z,43.10
2022-10-27T12:22:31.771Z,43.20
2022-10-27T12:25:08.728Z,42.90
2022-10-27T12:27:46.451Z,42.50
2022-10-27T12:30:20.916Z,42.80
2022-10-27T12:33:23.348Z,42.70
2022-10-27T12:36:14.502Z,43.40
2022-10-27T12:38:54.056Z,43.60
2022-10-27T12:41:51.226Z,43.30
2022-10-27T12:44:24.243Z,43.20
2022-10-27T12:47:07.855Z,42.80
2022-10-27T12:50:09.808Z,43.00
2022-10-27T12:52:51.664Z,42.70
2022-10-27T12:55:44.307Z,43.50
2022-10-27T12:58:39.537Z,43.10
2022-10-27T13:01:39.804Z,42.90
2022-10-27T13:04:49.310Z,42.20
2022-10-27T13:07:57.360Z,42.20
2022-10-27T13:10:43.659Z,42.00
2022-10-27T13:13:27.470Z,42.10
2022-10-27T13:16:04.420Z,41.60
2022-10-27T13:19:09.467Z,41.00
2022-10-27T13:21:47.567Z,41.00
2022-10-27T13:24:32.736Z,40.90
2022-10-27T13:27:16.319Z,41.00
2022-10-27T13:29:57.469Z,41.30
2022-10-27T13:32:29.958Z,40.90
2022-10-27T13:35:01.109Z,40.60
2022-10-27T13:37:49.222Z,40.00
2022-10-27T13:40:23.153Z,39.40
2022-10-27T13:42:54.311Z,39.00
2022-10-27T13:45:28.610Z,38.80
2022-10-27T13:48:08.934Z,38.50
2022-10-27T13:50:39.557Z,37.60
2022-10-27T13:53:17.035Z,36.00
2022-10-27T13:55:54.974Z,34.90
2022-10-27T13:58:53.919Z,34.20
2022-10-27T14:01:40.932Z,33.60
2022-10-27T14:04:16.670Z,33.50
2022-10-27T14:06:47.550Z,33.30
2022-10-27T14:09:31.300Z,33.20
2022-10-27T14:14:40.217Z,32.30
2022-10-27T14:17:21.887Z,32.20
2022-10-27T14:20:02.182Z,32.20
2022-10-27T14:22:43.867Z,32.10
2022-10-27T14:25:32.216Z,32.00
2022-10-27T14:28:20.860Z,31.80
2022-10-27T14:31:09.683Z,32.00
2022-10-27T14:33:38.481Z,32.10
2022-10-27T14:36:25.340Z,32.00
2022-10-27T14:39:08.625Z,31.70
2022-10-27T14:41:39.447Z,31.70
2022-10-27T14:44:17.450Z,31.70
2022-10-27T14:46:49.006Z,31.70
2022-10-27T14:49:34.905Z,31.60
2022-10-27T14:52:08.566Z,31.70
2022-10-27T14:54:37.978Z,31.60
2022-10-27T14:57:27.760Z,32.00
2022-10-27T14:59:56.023Z,32.10
2022-10-27T15:02:26.020Z,32.40
2022-10-27T15:04:54.331Z,32.80
2022-10-27T15:07:24.419Z,32.80
2022-10-27T15:09:53.192Z,32.60
2022-10-27T15:12:33.377Z,32.20
2022-10-27T15:15:05.480Z,31.70
2022-10-27T15:17:37.616Z,31.60
2022-10-27T15:20:07.736Z,31.40
2022-10-27T15:22:37.361Z,31.70
2022-10-27T15:25:10.692Z,31.80
2022-10-27T15:27:39.376Z,31.70
2022-10-27T15:30:08.909Z,31.90
2022-10-27T15:32:43.498Z,31.90
2022-10-27T15:35:30.820Z,31.70
2022-10-27T15:38:00.778Z,31.20
2022-10-27T15:40:48.315Z,31.10
2022-10-27T15:43:30.999Z,31.00
2022-10-27T15:46:30.178Z,30.50
2022-10-27T15:49:04.327Z,30.10
2022-10-27T15:51:51.125Z,29.90
2022-10-27T15:54:24.883Z,29.50
2022-10-27T15:56:55.242Z,29.20
2022-10-27T15:59:29.758Z,28.80
2022-10-27T16:02:05.906Z,28.20
2022-10-27T16:04:39.604Z,28.00
2022-10-27T16:07:13.672Z,27.60
2022-10-27T16:09:46.672Z,27.40
2022-10-27T16:12:17.831Z,27.20
2022-10-27T16:14:50.904Z,27.00
2022-10-27T16:17:23.072Z,26.90
2022-10-27T16:19:52.125Z,26.70
2022-10-27T16:22:22.323Z,26.60
2022-10-27T16:24:53.608Z,26.50
2022-10-27T16:27:25.287Z,26.40
2022-10-27T16:29:59.931Z,26.30
2022-10-27T16:32:30.242Z,26.20
2022-10-27T16:34:58.724Z,26.10
2022-10-27T16:37:30.626Z,26.10
2022-10-27T16:39:59.130Z,26.00
2022-10-27T16:42:28.239Z,26.00
2022-10-27T16:44:56.424Z,25.90
2022-10-27T16:47:24.547Z,25.80
2022-10-27T16:49:54.647Z,25.70
2022-10-27T16:52:23.055Z,25.70
2022-10-27T16:54:51.459Z,25.60
2022-10-27T16:57:19.710Z,25.60
2022-10-27T16:59:47.792Z,25.40
2022-10-27T17:02:16.941Z,25.30
2022-10-27T17:04:45.113Z,25.20
2022-10-27T17:07:13.652Z,25.20
2022-10-27T17:09:41.699Z,25.10
2022-10-27T17:12:09.721Z,25.10
2022-10-27T17:14:37.780Z,25.00
2022-10-27T17:17:05.956Z,25.00
2022-10-27T17:19:33.979Z,25.00
2022-10-27T17:22:02.293Z,24.90
2022-10-27T17:24:30.201Z,24.90
2022-10-27T17:26:58.431Z,24.80
2022-10-27T17:29:27.312Z,24.80
2022-10-27T17:31:55.302Z,24.70
2022-10-27T17:34:23.318Z,24.70
2022-10-27T17:36:51.798Z,24.60
2022-10-27T17:39:19.858Z,24.60
2022-10-27T17:41:47.966Z,24.50
2022-10-27T17:44:17.267Z,24.50
2022-10-27T17:46:45.489Z,24.40
2022-10-27T17:49:13.472Z,24.40
2022-10-27T17:51:41.990Z,24.30
2022-10-27T17:54:12.848Z,24.20
2022-10-27T17:56:44.958Z,24.20
2022-10-27T17:59:16.812Z,24.10
2022-10-27T18:01:46.455Z,24.10
2022-10-27T18:04:14.617Z,24.10
2022-10-27T18:06:43.456Z,24.00
2022-10-27T18:09:13.429Z,24.00
2022-10-27T18:11:42.390Z,24.00
2022-10-27T18:14:15.976Z,23.90
2022-10-27T18:16:47.478Z,23.90
2022-10-27T18:19:17.049Z,23.80
2022-10-27T18:21:47.009Z,23.80
2022-10-27T18:24:16.848Z,23.70
2022-10-27T18:26:48.642Z,23.70
2022-10-27T18:29:19.690Z,23.70
2022-10-27T18:31:50.782Z,23.70
2022-10-27T18:34:18.833Z,23.60
2022-10-27T18:36:47.206Z,23.60
2022-10-27T18:39:17.650Z,23.60
2022-10-27T18:41:48.818Z,23.50
2022-10-27T18:44:18.044Z,23.50
2022-10-27T18:46:46.642Z,23.50
2022-10-27T18:49:16.352Z,23.40
2022-10-27T18:51:54.181Z,23.40
2022-10-27T18:54:25.090Z,23.30
2022-10-27T18:56:53.198Z,23.20
2022-10-27T18:59:21.280Z,23.10
2022-10-27T19:01:50.835Z,23.10
2022-10-27T19:04:18.794Z,23.00
2022-10-27T19:06:47.637Z,23.00
2022-10-27T19:09:15.677Z,23.00
2022-10-27T19:11:44.667Z,22.90
2022-10-27T19:14:12.956Z,22.90
2022-10-27T19:16:41.496Z,22.80
2022-10-27T19:19:12.337Z,22.70
2022-10-27T19:21:40.796Z,22.70
2022-10-27T19:24:11.807Z,22.70
2022-10-27T19:26:42.286Z,22.70
2022-10-27T19:29:10.486Z,22.70
2022-10-27T19:31:40.717Z,22.60
2022-10-27T19:34:10.539Z,22.60
2022-10-27T19:36:41.859Z,22.60
2022-10-27T19:39:11.782Z,22.60
2022-10-27T19:41:40.399Z,22.60
2022-10-27T19:44:08.840Z,22.60
2022-10-27T19:46:37.077Z,22.60
2022-10-27T19:49:08.139Z,22.60
2022-10-27T19:51:41.221Z,22.60
2022-10-27T19:54:15.171Z,22.60
2022-10-27T19:56:48.202Z,22.60
2022-10-27T19:59:20.270Z,22.60
2022-10-27T20:01:52.204Z,22.50
2022-10-27T20:04:21.786Z,22.50
2022-10-27T20:06:50.283Z,22.40
2022-10-27T20:09:20.864Z,22.40
2022-10-27T20:11:50.303Z,22.30
2022-10-27T20:14:18.771Z,22.30
2022-10-27T20:16:50.615Z,22.20
2022-10-27T20:19:21.983Z,22.10
2022-10-27T20:21:51.162Z,22.10
2022-10-27T20:24:20.905Z,22.00
2022-10-27T20:29:24.095Z,22.00
2022-10-27T20:31:55.772Z,21.90
2022-10-27T20:34:24.033Z,21.90
2022-10-27T20:36:54.251Z,21.90
2022-10-27T20:39:23.121Z,21.90
2022-10-27T20:41:51.671Z,21.90
2022-10-27T20:44:21.002Z,21.80
2022-10-27T20:46:49.403Z,21.90
2022-10-27T20:49:17.478Z,21.90
2022-10-27T20:51:45.767Z,21.80
2022-10-27T20:54:17.285Z,21.80
2022-10-27T20:56:46.299Z,21.80
2022-10-27T20:59:14.631Z,21.70
2022-10-27T21:01:43.865Z,21.70
2022-10-27T21:04:18.111Z,21.70
2022-10-27T21:06:48.181Z,21.70
2022-10-27T21:09:19.673Z,21.60
2022-10-27T21:11:48.988Z,21.60
2022-10-27T21:14:17.054Z,21.60
2022-10-27T21:16:47.313Z,21.50
2022-10-27T21:19:18.600Z,21.40
2022-10-27T21:21:46.715Z,21.40
2022-10-27T21:24:17.186Z,21.40
2022-10-27T21:26:46.826Z,21.30
2022-10-27T21:29:15.113Z,21.30
2022-10-27T21:31:43.698Z,21.30
2022-10-27T21:34:14.625Z,21.20
2022-10-27T21:36:42.743Z,21.20
2022-10-27T21:39:10.740Z,21.20
2022-10-27T21:41:38.972Z,21.10
2022-10-27T21:44:07.946Z,21.10
2022-10-27T21:46:36.207Z,21.10
2022-10-27T21:49:04.165Z,21.10
2022-10-27T21:51:32.554Z,21.00
2022-10-27T21:54:02.632Z,21.00
2022-10-27T21:56:35.415Z,21.00
2022-10-27T21:59:04.087Z,21.00
2022-10-27T22:01:32.181Z,20.90
2022-10-27T22:04:00.349Z,20.90
2022-10-27T22:06:33.890Z,20.90
2022-10-27T22:09:02.500Z,20.80
2022-10-27T22:11:38.787Z,20.80
2022-10-27T22:14:06.980Z,20.80
2022-10-27T22:16:35.807Z,20.80
2022-10-27T22:19:05.753Z,20.80
2022-10-27T22:21:36.833Z,20.80
2022-10-27T22:24:06.169Z,20.80
2022-10-27T22:26:34.850Z,20.80
2022-10-27T22:29:03.091Z,20.70
2022-10-27T22:31:33.162Z,20.70
2022-10-27T22:34:02.794Z,20.70
2022-10-27T22:36:31.297Z,20.70
2022-10-27T22:39:01.681Z,20.60
2022-10-27T22:41:30.988Z,20.60
2022-10-27T22:43:59.568Z,20.60
2022-10-27T22:46:30.341Z,20.60
2022-10-27T22:48:58.973Z,20.50
2022-10-27T22:51:28.462Z,20.50
2022-10-27T22:53:57.753Z,20.50
2022-10-27T22:56:28.761Z,20.50
2022-10-27T22:58:59.145Z,20.50
2022-10-27T23:01:30.023Z,20.40
2022-10-27T23:04:00.753Z,20.40
2022-10-27T23:06:31.089Z,20.40
2022-10-27T23:09:03.304Z,20.40
2022-10-27T23:11:34.868Z,20.30
2022-10-27T23:14:04.158Z,20.30
2022-10-27T23:16:33.714Z,20.30
2022-10-27T23:19:02.586Z,20.30
2022-10-27T23:21:32.193Z,20.30
2022-10-27T23:24:01.408Z,20.30
2022-10-27T23:26:35.122Z,20.20
2022-10-27T23:29:06.278Z,20.20
2022-10-27T23:31:35.751Z,20.20
2022-10-27T23:34:05.952Z,20.20
2022-10-27T23:36:36.829Z,20.20
2022-10-27T23:39:05.522Z,20.20
2022-10-27T23:41:34.620Z,20.20
2022-10-27T23:44:03.538Z,20.10
2022-10-27T23:46:31.755Z,20.10
2022-10-27T23:49:00.520Z,20.10
2022-10-27T23:51:29.593Z,20.10
2022-10-27T23:53:58.038Z,20.10
2022-10-27T23:56:26.702Z,20.10
2022-10-27T23:58:55.781Z,20.10
